Pagina principale
METAR-TAF:

METAR-TAF

Aeroporti :

Aeroporto Internazionale Julius Nyerere

Dar es Salaam, Tanzania

latitudine: 06-52S, longitudine: 039-12E, altezza: 55 m

Osservazione

Il bollettino è stato emesso 1 ora e 26 minuti fa, alle 01:00 UTC
Vento 5 kt da sud
Temperature 25°C
Umidità 94%
Pressione 1009 hPa
Visibilità 10 km o più
Poco nuvoloso ad un'altezza di 1100 ft
Nubi sparse ad un'altezza di 7000 ft

METAR: HTDA 220100Z 19005KT 9999 FEW011 SCT070 25/24 Q1009 NOSIG

Ora: 05:26 (02:26 UTC)


TAF: mancante

Osservazioni e previsioni meteorologiche di più di 4000 aeroporti (messaggi METAR e TAF).

Le stazioni disponibili sono rappresentate dai dischi gialli e rossi sulla carta.

Puntare il mouse per vedere il nome della stazione.

Clicca sopra per visualizzare le osservazioni e previsioni meteorologiche.

Per cambiare la mappa : fare clic sui pulsanti verdi con una croce nera per ingrandire, il pulsante verde con un trattino per diminuire, o sulla freccia verde per le mappe adiacenti.


METAR-TAF: